Time;durP1;ratioP1;P1;durP2;ratioP2;P2;SDS_P1;SDS_P2;PMS_P1;PMS_P2;Temp;Humidity;BMP_temperature;BMP_pressure;BME280_temperature;BME280_humidity;BME280_pressure;Samples;Min_cycle;Max_cycle;Signal;HPM_P1;HPM_P2
2023/12/28 00:00:18;;;;;;;1.30;1.10;;;;;;;15.15;56.12;98632.35;105808;1251;60447;-37
2023/12/28 00:02:46;;;;;;;1.50;1.10;;;;;;;15.15;55.97;98641.31;105763;1254;74224;-37
2023/12/28 00:05:13;;;;;;;1.90;1.10;;;;;;;15.15;56.01;98640.39;105791;1253;64875;-37
2023/12/28 00:07:41;;;;;;;1.40;1.30;;;;;;;15.15;56.01;98641.78;105530;1251;72694;-38
2023/12/28 00:10:09;;;;;;;1.20;1.00;;;;;;;15.15;55.86;98641.09;105566;1256;60441;-38
2023/12/28 00:12:36;;;;;;;1.60;1.00;;;;;;;15.15;55.96;98642.27;105906;1255;60414;-37
2023/12/28 00:15:04;;;;;;;1.00;0.90;;;;;;;15.16;56.00;98646.20;105922;1252;73554;-36
2023/12/28 00:17:32;;;;;;;1.60;1.40;;;;;;;15.15;55.99;98651.50;105612;1257;66290;-37
2023/12/28 00:19:59;;;;;;;1.60;1.10;;;;;;;15.15;55.97;98662.39;105816;1252;72569;-37
2023/12/28 00:22:27;;;;;;;1.40;1.10;;;;;;;15.15;55.93;98669.62;105972;1256;60451;-37
2023/12/28 00:24:54;;;;;;;1.20;1.10;;;;;;;15.15;55.93;98669.68;105981;1253;60445;-37
2023/12/28 00:27:21;;;;;;;1.50;1.20;;;;;;;15.15;55.96;98668.38;106020;1252;74204;-37
2023/12/28 00:29:48;;;;;;;2.30;1.40;;;;;;;15.15;55.86;98673.61;105883;1256;65873;-37
2023/12/28 00:32:16;;;;;;;1.20;0.90;;;;;;;15.15;55.91;98685.43;105762;1253;72530;-37
2023/12/28 00:34:44;;;;;;;1.20;1.00;;;;;;;15.15;55.87;98683.48;105712;1256;60470;-37
2023/12/28 00:37:11;;;;;;;1.20;1.10;;;;;;;15.16;55.81;98688.45;105811;1253;60355;-37
2023/12/28 00:39:40;;;;;;;1.10;1.00;;;;;;;15.16;55.87;98691.86;105956;1251;73709;-37
2023/12/28 00:42:08;;;;;;;1.50;1.00;;;;;;;15.16;55.88;98689.42;105779;1255;65609;-37
2023/12/28 00:44:35;;;;;;;1.90;1.20;;;;;;;15.15;55.81;98684.89;105782;1253;72487;-38
2023/12/28 00:47:06;;;;;;;2.10;1.10;;;;;;;15.16;55.85;98682.30;105867;1256;60566;-37
2023/12/28 00:49:33;;;;;;;1.10;1.10;;;;;;;15.16;55.82;98676.53;105924;1252;60434;-36
2023/12/28 00:52:01;;;;;;;1.70;1.10;;;;;;;15.16;55.86;98673.13;105985;1253;73958;-37
2023/12/28 00:54:30;;;;;;;2.20;1.20;;;;;;;15.16;55.86;98671.73;105988;1256;66335;-37
2023/12/28 00:56:57;;;;;;;1.10;1.00;;;;;;;15.16;55.73;98673.93;105891;1253;72664;-37
2023/12/28 00:59:25;;;;;;;1.20;1.10;;;;;;;15.16;55.79;98669.99;105878;1256;60416;-36
2023/12/28 01:01:52;;;;;;;2.30;1.10;;;;;;;15.16;55.77;98666.81;105997;1253;60344;-36
2023/12/28 01:04:22;;;;;;;1.40;1.10;;;;;;;15.17;55.93;98669.88;105659;1255;74828;-37
2023/12/28 01:06:51;;;;;;;1.00;0.90;;;;;;;15.17;55.81;98663.84;105781;1256;65174;-37
2023/12/28 01:09:19;;;;;;;1.20;1.10;;;;;;;15.16;55.72;98656.27;105710;1253;72295;-37
2023/12/28 01:11:46;;;;;;;1.20;1.10;;;;;;;15.17;55.77;98657.67;105932;1256;61228;-37
2023/12/28 01:14:14;;;;;;;1.10;0.90;;;;;;;15.17;55.76;98654.76;105771;1253;61261;-37
2023/12/28 01:16:43;;;;;;;1.50;1.20;;;;;;;15.17;55.89;98654.27;105999;1253;74570;-37
2023/12/28 01:19:11;;;;;;;1.50;1.30;;;;;;;15.17;55.85;98654.86;105943;1256;65948;-37
2023/12/28 01:21:39;;;;;;;1.30;1.20;;;;;;;15.17;55.80;98646.06;105808;1252;72633;-37
2023/12/28 01:24:07;;;;;;;1.30;1.00;;;;;;;15.17;55.71;98638.73;105921;1253;61398;-37
2023/12/28 01:26:34;;;;;;;1.40;1.30;;;;;;;15.17;55.64;98642.51;105937;1255;61311;-37
2023/12/28 01:29:03;;;;;;;1.40;1.20;;;;;;;15.17;55.80;98639.59;105847;1256;74604;-37
2023/12/28 01:31:30;;;;;;;1.20;1.10;;;;;;;15.17;55.76;98638.45;105932;1253;65407;-37
2023/12/28 01:33:58;;;;;;;2.30;1.20;;;;;;;15.17;55.76;98632.66;105712;1252;72601;-36
2023/12/28 01:36:26;;;;;;;1.10;1.00;;;;;;;15.17;55.75;98623.09;105683;1256;61141;-37
2023/12/28 01:38:54;;;;;;;1.20;1.10;;;;;;;15.17;55.74;98618.55;105591;1253;61327;-37
2023/12/28 01:41:21;;;;;;;1.20;1.10;;;;;;;15.17;55.75;98624.41;105989;1251;74462;-37
2023/12/28 01:43:48;;;;;;;1.80;1.00;;;;;;;15.17;55.75;98637.05;105968;1256;65998;-37
2023/12/28 01:46:19;;;;;;;1.50;1.10;;;;;;;15.17;55.67;98655.94;105957;1254;72577;-37
2023/12/28 01:48:48;;;;;;;1.60;1.20;;;;;;;15.17;55.71;98658.64;105794;1253;61251;-36
2023/12/28 01:51:15;;;;;;;1.60;1.30;;;;;;;15.17;55.72;98642.83;105823;1255;61239;-38
2023/12/28 01:53:44;;;;;;;1.40;1.10;;;;;;;15.18;55.62;98622.41;105517;1254;74291;-37
2023/12/28 01:56:11;;;;;;;1.30;1.20;;;;;;;15.18;55.72;98612.16;105794;1251;65973;-37
2023/12/28 01:58:41;;;;;;;1.40;1.00;;;;;;;15.17;55.64;98615.48;105887;1251;72310;-38
2023/12/28 02:01:10;;;;;;;1.40;1.20;;;;;;;15.17;55.66;98621.02;105828;1256;61258;-37
2023/12/28 02:03:38;;;;;;;1.30;1.10;;;;;;;15.17;55.62;98613.63;105816;1253;61224;-36
2023/12/28 02:06:07;;;;;;;1.20;1.10;;;;;;;15.18;55.65;98603.67;105799;1252;74400;-37
2023/12/28 02:08:34;;;;;;;1.20;1.10;;;;;;;15.17;55.60;98588.95;105661;1254;65643;-37
2023/12/28 02:11:01;;;;;;;2.20;1.20;;;;;;;15.18;55.63;98570.61;105956;1253;72601;-37
2023/12/28 02:13:29;;;;;;;1.30;1.10;;;;;;;15.17;55.63;98572.83;105945;1256;61221;-37
2023/12/28 02:16:28;;;;;;;1.20;1.10;;;;;;;15.18;55.63;98578.48;105804;1251;61224;-37
2023/12/28 02:18:56;;;;;;;1.20;1.10;;;;;;;15.17;55.57;98579.62;105885;1255;74404;-36
2023/12/28 02:21:24;;;;;;;1.50;1.20;;;;;;;15.18;55.56;98593.97;105981;1253;66199;-36
2023/12/28 02:23:52;;;;;;;1.20;1.10;;;;;;;15.18;55.54;98599.14;105575;1253;72634;-37
2023/12/28 02:26:19;;;;;;;1.30;1.20;;;;;;;15.18;55.60;98591.59;105715;1256;61216;-37
2023/12/28 02:28:46;;;;;;;2.80;1.20;;;;;;;15.17;55.54;98596.89;105861;1252;61237;-37
2023/12/28 02:31:19;;;;;;;1.80;1.20;;;;;;;15.18;55.55;98595.53;105931;1256;74594;-37
2023/12/28 02:34:15;;;;;;;1.40;1.10;;;;;;;15.18;55.60;98599.46;105921;1253;65499;-37
2023/12/28 02:36:44;;;;;;;1.60;1.10;;;;;;;15.19;55.59;98608.14;105824;1252;73683;-37
2023/12/28 02:39:11;;;;;;;1.40;1.10;;;;;;;15.18;55.48;98601.45;105658;1253;61286;-38
2023/12/28 02:41:39;;;;;;;1.20;1.10;;;;;;;15.18;55.61;98591.30;105647;1259;61323;-38
2023/12/28 02:44:06;;;;;;;2.00;1.00;;;;;;;15.18;55.55;98577.13;105870;1257;74572;-37
2023/12/28 02:46:33;;;;;;;1.20;1.10;;;;;;;15.18;55.49;98574.90;105706;1256;66109;-37
2023/12/28 02:49:01;;;;;;;1.40;1.20;;;;;;;15.18;55.55;98572.64;105967;1251;72659;-37
2023/12/28 02:51:28;;;;;;;1.50;1.10;;;;;;;15.18;55.55;98573.34;105896;1256;61361;-37
2023/12/28 02:53:56;;;;;;;1.50;1.40;;;;;;;15.19;55.49;98576.84;105927;1252;61320;-37
2023/12/28 02:56:23;;;;;;;1.10;1.00;;;;;;;15.19;55.53;98595.35;105928;1255;74845;-37
2023/12/28 02:58:50;;;;;;;1.50;1.20;;;;;;;15.19;55.48;98600.41;105811;1256;64423;-37
2023/12/28 03:01:18;;;;;;;1.50;1.30;;;;;;;15.19;55.53;98595.67;105681;1253;72605;-39
2023/12/28 03:03:45;;;;;;;1.20;1.10;;;;;;;15.19;55.50;98596.65;105855;1256;61221;-37
2023/12/28 03:06:13;;;;;;;1.10;1.00;;;;;;;15.19;55.47;98594.75;105842;1253;61199;-37
2023/12/28 03:08:40;;;;;;;1.30;1.20;;;;;;;15.19;55.40;98591.89;105729;1253;74594;-37
2023/12/28 03:11:08;;;;;;;2.70;1.20;;;;;;;15.19;55.45;98593.83;105814;1252;66114;-37
2023/12/28 03:13:35;;;;;;;1.60;1.20;;;;;;;15.19;55.46;98591.29;105877;1254;72364;-37
2023/12/28 03:16:02;;;;;;;1.50;1.40;;;;;;;15.19;55.47;98595.66;105896;1255;61241;-37
2023/12/28 03:18:30;;;;;;;1.10;1.00;;;;;;;15.19;55.44;98589.24;105933;1254;61330;-37
2023/12/28 03:20:57;;;;;;;1.60;1.30;;;;;;;15.19;55.52;98585.19;105924;1251;75079;-37
2023/12/28 03:23:25;;;;;;;1.40;1.20;;;;;;;15.19;55.45;98577.39;105719;1256;66099;-37
2023/12/28 03:25:52;;;;;;;1.50;1.10;;;;;;;15.19;55.46;98562.21;105743;1254;72657;-37
2023/12/28 03:28:20;;;;;;;1.40;1.20;;;;;;;15.19;55.32;98555.42;105820;1256;61228;-36
2023/12/28 03:30:47;;;;;;;1.20;1.10;;;;;;;15.19;55.42;98549.95;105825;1253;61427;-37
2023/12/28 03:33:15;;;;;;;1.40;1.10;;;;;;;15.19;55.41;98549.80;105648;1255;74638;-37
2023/12/28 03:35:42;;;;;;;1.50;1.00;;;;;;;15.19;55.45;98554.02;106104;1256;65472;-35
2023/12/28 03:38:09;;;;;;;1.20;1.10;;;;;;;15.19;55.41;98553.73;105690;1253;72427;-36
2023/12/28 03:40:36;;;;;;;2.10;1.40;;;;;;;15.19;55.42;98551.80;106094;1256;61340;-39
2023/12/28 03:43:05;;;;;;;1.50;1.00;;;;;;;15.19;55.35;98542.24;105829;1254;61228;-37
2023/12/28 03:45:32;;;;;;;1.30;1.20;;;;;;;15.19;55.28;98549.41;106402;1254;74687;-37
2023/12/28 03:47:59;;;;;;;1.20;1.10;;;;;;;15.19;55.37;98551.73;105889;1257;65397;-37
2023/12/28 03:50:28;;;;;;;1.20;1.10;;;;;;;15.19;55.38;98552.81;105815;1253;71530;-37
2023/12/28 03:52:55;;;;;;;1.20;1.10;;;;;;;15.20;55.33;98550.20;105821;1256;61253;-38
2023/12/28 03:55:23;;;;;;;1.40;1.20;;;;;;;15.20;55.38;98546.05;105893;1253;61330;-36
2023/12/28 03:57:51;;;;;;;1.30;1.00;;;;;;;15.20;55.34;98542.49;105918;1253;74995;-37
2023/12/28 04:00:20;;;;;;;1.90;1.20;;;;;;;15.20;55.43;98536.17;105614;1253;66018;-38
2023/12/28 04:02:48;;;;;;;1.40;1.20;;;;;;;15.19;55.36;98537.48;105661;1253;72581;-36
2023/12/28 04:05:17;;;;;;;0.90;0.80;;;;;;;15.19;55.28;98536.94;105618;1258;61190;-38
2023/12/28 04:07:45;;;;;;;1.20;1.10;;;;;;;15.19;55.35;98539.48;105548;1254;61327;-37
2023/12/28 04:10:12;;;;;;;1.40;1.10;;;;;;;15.20;55.37;98532.39;105514;1253;74746;-37
2023/12/28 04:12:40;;;;;;;1.50;1.20;;;;;;;15.19;55.34;98523.35;105643;1257;67070;-37
2023/12/28 04:15:07;;;;;;;1.50;1.10;;;;;;;15.19;55.40;98522.21;105526;1253;72605;-37
2023/12/28 04:17:35;;;;;;;1.00;1.00;;;;;;;15.19;55.42;98510.56;105572;1257;61228;-37
2023/12/28 04:20:03;;;;;;;1.20;1.10;;;;;;;15.19;55.42;98510.72;105506;1253;61391;-37
2023/12/28 04:22:31;;;;;;;1.60;1.30;;;;;;;15.20;55.40;98513.83;105697;1256;74290;-37
2023/12/28 04:24:59;;;;;;;1.80;1.30;;;;;;;15.20;55.33;98512.15;105647;1256;66343;-38
2023/12/28 04:27:26;;;;;;;1.50;1.20;;;;;;;15.19;55.42;98499.70;105649;1253;72487;-37
2023/12/28 04:29:54;;;;;;;2.20;1.20;;;;;;;15.20;55.31;98504.86;105872;1252;61231;-36
2023/12/28 04:32:23;;;;;;;1.20;1.10;;;;;;;15.20;55.32;98495.30;105717;1257;61321;-36
2023/12/28 04:34:51;;;;;;;1.40;1.20;;;;;;;15.19;55.29;98492.68;105934;1253;74584;-37
2023/12/28 04:37:18;;;;;;;1.50;1.10;;;;;;;15.19;55.23;98494.37;105744;1256;65857;-35
2023/12/28 04:39:46;;;;;;;1.20;1.10;;;;;;;15.19;55.32;98505.48;105689;1252;72604;-37
2023/12/28 04:42:14;;;;;;;1.20;1.10;;;;;;;15.19;55.37;98498.92;105645;1258;61241;-37
2023/12/28 04:44:41;;;;;;;2.10;1.20;;;;;;;15.19;55.30;98499.13;105639;1253;61382;-37
2023/12/28 04:47:09;;;;;;;1.70;1.10;;;;;;;15.20;55.35;98509.13;105925;1252;74608;-37
2023/12/28 04:49:36;;;;;;;1.10;1.00;;;;;;;15.19;55.32;98505.31;105845;1256;66273;-37
2023/12/28 04:52:04;;;;;;;1.10;1.00;;;;;;;15.19;55.36;98505.25;105914;1252;72341;-37
2023/12/28 04:54:33;;;;;;;1.50;1.20;;;;;;;15.19;55.37;98508.33;105738;1257;61254;-37
2023/12/28 04:57:00;;;;;;;1.30;1.10;;;;;;;15.20;55.38;98507.02;105762;1253;61292;-37
2023/12/28 04:59:27;;;;;;;1.40;1.20;;;;;;;15.19;55.35;98502.01;105661;1251;74342;-37
2023/12/28 05:01:56;;;;;;;1.20;1.10;;;;;;;15.20;55.27;98499.79;105933;1256;65792;-37
2023/12/28 05:04:23;;;;;;;1.70;1.20;;;;;;;15.20;55.35;98500.02;105897;1253;72657;-37
2023/12/28 05:06:51;;;;;;;1.70;1.30;;;;;;;15.19;55.28;98492.68;105893;1256;61251;-36
2023/12/28 05:09:18;;;;;;;1.90;1.50;;;;;;;15.19;55.32;98488.96;105568;1252;61247;-36
2023/12/28 05:11:46;;;;;;;1.90;1.20;;;;;;;15.19;55.30;98486.66;105726;1254;74386;-37
2023/12/28 05:14:13;;;;;;;1.40;1.20;;;;;;;15.19;55.31;98486.05;105666;1256;65049;-37
2023/12/28 05:16:40;;;;;;;1.80;1.20;;;;;;;15.19;55.34;98483.73;105805;1253;72461;-37
2023/12/28 05:19:08;;;;;;;1.20;1.00;;;;;;;15.19;55.25;98480.33;105809;1256;61263;-37
2023/12/28 05:21:36;;;;;;;1.30;1.20;;;;;;;15.19;55.30;98473.48;105974;1253;61256;-37
2023/12/28 05:24:04;;;;;;;1.30;1.20;;;;;;;15.19;55.24;98469.38;105982;1251;74523;-37
2023/12/28 05:26:32;;;;;;;1.20;1.10;;;;;;;15.19;55.36;98462.79;105991;1256;64932;-37
2023/12/28 05:29:00;;;;;;;1.80;1.10;;;;;;;15.20;55.31;98455.06;105905;1253;73385;-37
2023/12/28 05:31:28;;;;;;;1.60;1.30;;;;;;;15.19;55.27;98455.67;105951;1256;61149;-37
2023/12/28 05:33:56;;;;;;;1.60;1.30;;;;;;;15.20;55.26;98453.60;105815;1252;61600;-37
2023/12/28 05:36:24;;;;;;;1.70;1.30;;;;;;;15.19;55.37;98451.36;105929;1256;74531;-37
2023/12/28 05:38:52;;;;;;;1.40;1.30;;;;;;;15.19;55.32;98450.95;105936;1256;65256;-37
2023/12/28 05:41:19;;;;;;;2.10;1.40;;;;;;;15.20;55.32;98449.45;105873;1252;72610;-37
2023/12/28 05:43:46;;;;;;;1.70;1.40;;;;;;;15.19;55.23;98448.88;105637;1256;61231;-37
2023/12/28 05:46:14;;;;;;;1.80;1.40;;;;;;;15.19;55.21;98447.27;105642;1253;61285;-36
2023/12/28 05:48:41;;;;;;;2.60;1.40;;;;;;;15.19;55.28;98449.27;105923;1256;73519;-37
2023/12/28 05:51:09;;;;;;;1.60;1.30;;;;;;;15.19;55.16;98447.86;106004;1256;66037;-37
2023/12/28 05:53:36;;;;;;;2.00;1.60;;;;;;;15.19;55.19;98451.31;105931;1256;71362;-37
2023/12/28 05:56:04;;;;;;;2.80;1.70;;;;;;;15.19;55.23;98453.80;105908;1256;61340;-37
2023/12/28 05:58:31;;;;;;;1.90;1.40;;;;;;;15.19;55.30;98457.73;105788;1253;61398;-37
2023/12/28 06:00:58;;;;;;;1.90;1.70;;;;;;;15.19;55.11;98459.95;105782;1253;74616;-37
2023/12/28 06:03:28;;;;;;;3.30;2.30;;;;;;;15.18;54.86;98447.29;105750;1256;65937;-39
2023/12/28 06:05:55;;;;;;;3.30;2.50;;;;;;;15.18;54.78;98445.19;105687;1254;72640;-39
2023/12/28 06:08:24;;;;;;;3.40;2.70;;;;;;;15.17;54.65;98444.91;105645;1256;61226;-39
2023/12/28 06:10:54;;;;;;;3.30;2.90;;;;;;;15.16;54.46;98445.40;105873;1256;61275;-39
2023/12/28 06:13:21;;;;;;;4.30;2.70;;;;;;;15.15;54.34;98438.66;105795;1256;74605;-37
2023/12/28 06:15:48;;;;;;;3.90;2.80;;;;;;;15.15;54.33;98433.27;105928;1256;63779;-40
2023/12/28 06:18:16;;;;;;;5.20;3.00;;;;;;;15.15;54.30;98437.55;105669;1253;72613;-37
2023/12/28 06:20:43;;;;;;;4.90;2.70;;;;;;;15.14;54.26;98430.98;105837;1256;61359;-39
2023/12/28 06:23:11;;;;;;;3.50;2.80;;;;;;;15.14;54.15;98431.52;105955;1253;61250;-37
2023/12/28 06:25:38;;;;;;;4.80;3.00;;;;;;;15.14;54.26;98426.79;106262;1256;74520;-38
2023/12/28 06:28:05;;;;;;;5.60;3.40;;;;;;;15.14;54.23;98427.02;105957;1256;65812;-38
2023/12/28 06:30:33;;;;;;;10.80;3.90;;;;;;;15.13;54.19;98423.77;106309;1253;72873;-38
2023/12/28 06:33:00;;;;;;;7.30;3.50;;;;;;;15.13;54.17;98417.73;105608;1256;61353;-39
2023/12/28 06:35:28;;;;;;;6.40;4.30;;;;;;;15.13;54.12;98414.49;106224;1253;61163;-39
2023/12/28 06:37:55;;;;;;;7.60;3.80;;;;;;;15.13;54.06;98417.13;105543;1254;73971;-37
2023/12/28 06:40:23;;;;;;;5.50;4.00;;;;;;;15.14;54.02;98418.91;105837;1255;66306;-37
2023/12/28 06:42:50;;;;;;;5.20;3.70;;;;;;;15.13;53.94;98412.50;105569;1254;72430;-38
2023/12/28 06:45:18;;;;;;;6.80;3.80;;;;;;;15.13;53.97;98419.98;105579;1255;61597;-39
2023/12/28 06:47:47;;;;;;;6.60;3.40;;;;;;;15.13;54.13;98416.76;105631;1251;61853;-38
2023/12/28 06:50:17;;;;;;;6.50;3.40;;;;;;;15.15;54.36;98414.51;105725;1252;74410;-38
2023/12/28 06:52:44;;;;;;;6.80;3.50;;;;;;;15.15;54.59;98407.75;105837;1256;66083;-36
2023/12/28 06:55:11;;;;;;;6.60;3.70;;;;;;;15.17;54.63;98402.27;105627;1253;72354;-37
2023/12/28 06:57:39;;;;;;;5.50;3.50;;;;;;;15.17;54.83;98410.14;105602;1255;61224;-38
2023/12/28 07:00:07;;;;;;;5.00;3.60;;;;;;;15.18;54.94;98413.08;105712;1252;61337;-38
2023/12/28 07:02:35;;;;;;;6.20;3.50;;;;;;;15.19;54.99;98412.18;105940;1257;74595;-37
2023/12/28 07:05:03;;;;;;;5.90;3.60;;;;;;;15.20;55.09;98414.25;105658;1256;65790;-37
2023/12/28 07:07:31;;;;;;;6.40;3.40;;;;;;;15.22;55.28;98418.80;105669;1253;72393;-39
2023/12/28 07:09:58;;;;;;;4.80;3.40;;;;;;;15.22;55.34;98406.16;105601;1256;61219;-39
2023/12/28 07:12:26;;;;;;;4.40;3.10;;;;;;;15.23;55.30;98405.54;105764;1251;172830;-38
2023/12/28 07:14:53;;;;;;;4.90;3.00;;;;;;;15.24;55.39;98411.42;105714;1256;74528;-37
2023/12/28 07:17:20;;;;;;;4.50;3.30;;;;;;;15.25;55.50;98409.27;105686;1257;65826;-39
2023/12/28 07:19:48;;;;;;;5.50;3.50;;;;;;;15.26;55.55;98402.06;105667;1251;72443;-39
2023/12/28 07:22:15;;;;;;;4.60;3.20;;;;;;;15.26;55.55;98396.28;105817;1256;61895;-39
2023/12/28 07:24:43;;;;;;;4.30;3.40;;;;;;;15.27;55.66;98398.95;105618;1254;61325;-39
2023/12/28 07:27:10;;;;;;;4.60;3.10;;;;;;;15.29;55.58;98398.17;105540;1251;74563;-39
2023/12/28 07:29:38;;;;;;;3.90;3.30;;;;;;;15.30;55.60;98401.26;105818;1257;66331;-37
2023/12/28 07:32:08;;;;;;;4.70;3.50;;;;;;;15.31;55.79;98394.59;105614;1251;72610;-37
2023/12/28 07:34:35;;;;;;;5.20;3.20;;;;;;;15.32;55.74;98395.48;105622;1256;61250;-38
2023/12/28 07:37:04;;;;;;;4.70;3.00;;;;;;;15.33;55.72;98393.23;105802;1251;61288;-37
2023/12/28 07:39:31;;;;;;;4.90;3.20;;;;;;;15.34;55.72;98390.95;107130;1252;73595;-37
2023/12/28 07:41:58;;;;;;;5.40;3.60;;;;;;;15.34;55.63;98382.85;105649;1257;65182;-39
2023/12/28 07:44:27;;;;;;;4.40;3.40;;;;;;;15.35;55.53;98379.66;105605;1251;73036;-37
2023/12/28 07:46:54;;;;;;;5.10;3.10;;;;;;;15.35;55.47;98384.61;105530;1257;61228;-37
2023/12/28 07:49:22;;;;;;;6.00;3.30;;;;;;;15.35;55.40;98382.92;107413;1255;61151;-39
2023/12/28 07:51:49;;;;;;;4.70;3.30;;;;;;;15.36;55.47;98381.55;107389;1254;74347;-37
2023/12/28 07:54:17;;;;;;;4.90;3.40;;;;;;;15.37;55.43;98378.29;105588;1256;66139;-37
2023/12/28 07:56:44;;;;;;;4.70;2.70;;;;;;;15.37;55.30;98381.00;105601;1256;71012;-36
2023/12/28 07:59:12;;;;;;;4.50;3.00;;;;;;;15.37;55.18;98377.70;105533;1256;61331;-37
2023/12/28 08:01:39;;;;;;;4.40;3.10;;;;;;;15.37;55.19;98381.76;105820;1252;61228;-37
2023/12/28 08:04:07;;;;;;;4.30;3.40;;;;;;;15.36;55.11;98377.34;105640;1256;75229;-37
2023/12/28 08:06:35;;;;;;;3.80;2.90;;;;;;;15.37;55.15;98380.30;105748;1256;66551;-37
2023/12/28 08:09:02;;;;;;;4.20;3.00;;;;;;;15.36;55.15;98377.71;105617;1253;72605;-37
2023/12/28 08:11:30;;;;;;;4.20;3.10;;;;;;;15.36;55.05;98382.19;105626;1256;61284;-37
2023/12/28 08:13:58;;;;;;;3.50;3.00;;;;;;;15.35;55.03;98379.84;105751;1253;61374;-37
2023/12/28 08:16:26;;;;;;;4.50;3.20;;;;;;;15.35;54.96;98379.05;105756;1253;74608;-37
2023/12/28 08:18:53;;;;;;;3.90;3.00;;;;;;;15.35;54.96;98384.14;105635;1256;66191;-38
2023/12/28 08:21:21;;;;;;;4.70;3.10;;;;;;;15.35;54.95;98384.01;105543;1250;72745;-38
2023/12/28 08:23:48;;;;;;;3.60;2.90;;;;;;;15.35;54.95;98378.41;105661;1256;61235;-37
2023/12/28 08:26:16;;;;;;;3.50;3.00;;;;;;;15.34;54.81;98374.80;105668;1256;61254;-38
2023/12/28 08:28:43;;;;;;;3.90;3.00;;;;;;;15.35;54.86;98365.94;105519;1255;74306;-36
2023/12/28 08:31:10;;;;;;;3.80;2.80;;;;;;;15.35;54.75;98365.86;105494;1250;67353;-40
2023/12/28 08:33:41;;;;;;;3.60;2.80;;;;;;;15.36;54.97;98362.98;105718;1253;73080;-37
2023/12/28 08:36:09;;;;;;;6.50;2.90;;;;;;;15.38;55.05;98351.45;105487;1255;61209;-37
2023/12/28 08:38:37;;;;;;;4.90;2.90;;;;;;;15.40;55.14;98345.05;105646;1254;61237;-36
2023/12/28 08:41:08;;;;;;;4.10;3.20;;;;;;;15.42;55.38;98342.40;105605;1253;74687;-37
2023/12/28 08:43:36;;;;;;;4.10;3.10;;;;;;;15.44;55.49;98343.45;105561;1256;65072;-40
2023/12/28 08:46:07;;;;;;;6.60;2.90;;;;;;;15.45;55.21;98337.55;105437;1256;72812;-36
2023/12/28 08:48:34;;;;;;;3.30;2.70;;;;;;;15.46;55.15;98337.43;105527;1258;61321;-36
2023/12/28 08:51:02;;;;;;;4.20;2.90;;;;;;;15.45;54.97;98336.48;106278;1256;61161;-38
2023/12/28 08:53:29;;;;;;;4.10;3.10;;;;;;;15.45;54.81;98339.25;105380;1256;75177;-37
2023/12/28 08:55:56;;;;;;;3.50;3.00;;;;;;;15.45;54.85;98321.35;105690;1256;66115;-37
2023/12/28 08:58:23;;;;;;;4.60;2.90;;;;;;;15.45;54.78;98323.14;105712;1254;72353;-37
2023/12/28 09:00:51;;;;;;;4.60;3.00;;;;;;;15.45;54.76;98306.33;105524;1256;61241;-38
2023/12/28 09:03:19;;;;;;;3.90;3.10;;;;;;;15.45;54.69;98297.32;105389;1253;61206;-37
2023/12/28 09:05:50;;;;;;;4.00;3.00;;;;;;;15.46;54.63;98298.43;105729;1253;74326;-37
2023/12/28 09:08:17;;;;;;;5.60;3.20;;;;;;;15.46;54.68;98290.33;105340;1259;67794;-37
2023/12/28 09:10:44;;;;;;;6.20;3.00;;;;;;;15.47;54.66;98286.69;106091;1254;73653;-37
2023/12/28 09:13:15;;;;;;;4.20;3.00;;;;;;;15.47;54.76;98276.27;105654;1259;61264;-38
2023/12/28 09:15:43;;;;;;;4.70;2.60;;;;;;;15.49;54.73;98270.23;105684;1252;61273;-37
2023/12/28 09:18:10;;;;;;;3.80;2.70;;;;;;;15.49;54.73;98262.45;105617;1256;74593;-38
2023/12/28 09:20:38;;;;;;;6.30;3.00;;;;;;;15.49;54.79;98257.86;105617;1256;64914;-38
2023/12/28 09:23:05;;;;;;;4.80;3.00;;;;;;;15.50;54.69;98253.09;105582;1255;73005;-39
2023/12/28 09:25:33;;;;;;;5.30;3.10;;;;;;;15.50;54.68;98245.07;106052;1254;61378;-38
2023/12/28 09:28:00;;;;;;;5.80;3.00;;;;;;;15.50;54.57;98240.21;105497;1254;61279;-38
2023/12/28 09:30:28;;;;;;;4.30;3.00;;;;;;;15.51;54.58;98235.77;105651;1256;74590;-37
2023/12/28 09:32:58;;;;;;;4.60;3.00;;;;;;;15.51;54.62;98233.78;105805;1256;65238;-37
2023/12/28 09:35:26;;;;;;;8.30;3.00;;;;;;;15.51;54.81;98225.56;107542;1253;72701;-40
2023/12/28 09:37:54;;;;;;;6.60;3.40;;;;;;;15.52;54.82;98220.48;105847;1256;61334;-40
2023/12/28 09:40:21;;;;;;;4.90;2.80;;;;;;;15.53;54.90;98218.77;105531;1253;61337;-39
2023/12/28 09:42:54;;;;;;;4.60;2.90;;;;;;;15.54;54.83;98220.13;105157;1259;75634;-40
2023/12/28 09:45:22;;;;;;;5.60;3.70;;;;;;;15.55;54.93;98215.57;105407;1256;65527;-41
2023/12/28 09:47:50;;;;;;;5.50;3.40;;;;;;;15.59;55.72;98210.54;105451;1259;73570;-40
2023/12/28 09:50:19;;;;;;;6.50;3.10;;;;;;;15.61;55.81;98215.69;107133;1253;61296;-42
2023/12/28 09:52:47;;;;;;;4.90;3.00;;;;;;;15.66;55.78;98213.41;105319;1259;61269;-43
2023/12/28 09:55:15;;;;;;;5.60;3.60;;;;;;;15.70;55.81;98210.58;107521;1257;74799;-47
2023/12/28 09:57:43;;;;;;;7.50;3.40;;;;;;;15.72;55.60;98200.94;105770;1258;65221;-47
2023/12/28 10:00:12;;;;;;;5.70;3.50;;;;;;;15.73;55.62;98193.93;105600;1256;73417;-47
2023/12/28 10:02:41;;;;;;;3.80;3.00;;;;;;;15.74;55.64;98190.44;105459;1264;61281;-48
2023/12/28 10:05:12;;;;;;;4.30;3.20;;;;;;;15.76;55.54;98186.79;105458;1258;61331;-44
2023/12/28 10:07:44;;;;;;;3.90;3.00;;;;;;;15.77;55.76;98186.84;105609;1254;75448;-40
2023/12/28 10:10:16;;;;;;;4.70;2.80;;;;;;;15.80;55.82;98181.95;105288;1255;66927;-39
2023/12/28 10:12:45;;;;;;;6.90;3.20;;;;;;;15.84;55.78;98180.03;105749;1254;72667;-43
2023/12/28 10:15:13;;;;;;;4.70;3.10;;;;;;;15.88;55.78;98163.77;106910;1252;61207;-40
2023/12/28 10:17:40;;;;;;;5.10;3.00;;;;;;;15.91;55.84;98151.81;105700;1255;61298;-40
2023/12/28 10:20:09;;;;;;;9.60;2.80;;;;;;;15.94;55.86;98149.67;105378;1251;77148;-42
2023/12/28 10:22:37;;;;;;;4.80;2.80;;;;;;;15.98;55.88;98151.93;109439;1253;66301;-41
2023/12/28 10:25:04;;;;;;;4.90;2.70;;;;;;;16.00;55.95;98148.58;109417;1253;72601;-39
2023/12/28 10:27:33;;;;;;;4.80;2.70;;;;;;;16.04;55.84;98145.88;107498;1255;61222;-40
2023/12/28 10:30:00;;;;;;;4.10;3.10;;;;;;;16.05;55.74;98145.71;109409;1251;59071;-40
2023/12/28 10:32:28;;;;;;;3.40;2.80;;;;;;;16.07;55.56;98149.65;109478;1250;75660;-39
2023/12/28 10:34:56;;;;;;;5.10;2.80;;;;;;;16.09;55.46;98142.34;109492;1250;65941;-41
2023/12/28 10:37:24;;;;;;;4.30;2.70;;;;;;;16.11;55.43;98137.79;105757;1256;72618;-41
2023/12/28 10:39:52;;;;;;;3.70;2.70;;;;;;;16.14;55.38;98134.08;105658;1259;61553;-41
2023/12/28 10:42:29;;;;;;;4.40;2.70;;;;;;;16.14;55.41;98127.55;105683;1256;61330;-39
2023/12/28 10:45:03;;;;;;;4.00;2.60;;;;;;;16.16;55.27;98126.23;105690;1256;74668;-40
2023/12/28 10:47:37;;;;;;;3.60;2.70;;;;;;;16.18;55.31;98115.73;105759;1251;66759;-40
2023/12/28 10:50:07;;;;;;;4.00;2.60;;;;;;;16.18;55.28;98115.20;105764;1256;72536;-41
2023/12/28 10:52:35;;;;;;;3.80;2.80;;;;;;;16.20;55.23;98110.66;105630;1258;61621;-39
2023/12/28 10:55:30;;;;;;;4.80;2.80;;;;;;;16.21;55.17;98102.52;105593;1254;61315;-37
2023/12/28 10:58:11;;;;;;;6.20;2.90;;;;;;;16.21;55.27;98110.53;105710;1253;73661;-39
2023/12/28 11:00:46;;;;;;;3.60;2.60;;;;;;;16.21;55.30;98114.15;106258;1256;66268;-38
2023/12/28 11:03:15;;;;;;;6.70;2.80;;;;;;;16.21;55.14;98112.85;105877;1254;71084;-39
2023/12/28 11:05:43;;;;;;;4.20;2.60;;;;;;;16.21;55.18;98111.98;105990;1255;61917;-39
2023/12/28 11:08:10;;;;;;;6.50;3.10;;;;;;;16.20;55.27;98115.14;105559;1253;61337;-40
2023/12/28 11:10:37;;;;;;;7.10;3.20;;;;;;;16.20;55.05;98119.08;105620;1257;74646;-39
2023/12/28 11:13:05;;;;;;;6.10;3.00;;;;;;;16.19;54.94;98113.94;105694;1258;64115;-39
2023/12/28 11:15:33;;;;;;;5.00;2.70;;;;;;;16.17;54.91;98113.64;106197;1256;72573;-39
2023/12/28 11:18:00;;;;;;;9.40;3.20;;;;;;;16.15;54.87;98111.87;105494;1259;61392;-39
2023/12/28 11:20:29;;;;;;;5.80;2.90;;;;;;;16.14;54.78;98109.76;107641;1255;61326;-40
2023/12/28 11:22:56;;;;;;;5.70;2.60;;;;;;;16.12;54.72;98108.56;105764;1257;74388;-39
2023/12/28 11:25:24;;;;;;;8.20;2.90;;;;;;;16.11;54.76;98101.41;105846;1256;64620;-39
2023/12/28 11:27:51;;;;;;;7.00;2.90;;;;;;;16.10;54.76;98100.44;105725;1258;72836;-39